TimeEST,TemperatureF,Dew PointF,Humidity,Sea Level PressureIn,VisibilityMPH,Wind Direction,Wind SpeedMPH,Gust SpeedMPH,PrecipitationIn,Events,Conditions,WindDirDegrees,DateUTC
12:15 AM,32.0,23.4,70,29.80,10.0,West,4.6,-,N/A,,Clear,280,2014-01-21 05:15:00
12:35 AM,31.6,23.7,73,29.79,10.0,WNW,6.9,-,N/A,,Clear,290,2014-01-21 05:35:00
12:55 AM,32.5,23.4,69,29.78,10.0,WNW,5.8,-,N/A,,Clear,300,2014-01-21 05:55:00
1:15 AM,30.9,23.5,74,29.77,10.0,West,4.6,-,N/A,,Clear,280,2014-01-21 06:15:00
1:35 AM,32.0,23.9,72,29.75,10.0,West,8.1,-,N/A,,Clear,280,2014-01-21 06:35:00
1:55 AM,34.2,23.7,66,29.75,10.0,WNW,4.6,-,N/A,,Clear,290,2014-01-21 06:55:00
2:15 AM,34.2,23.7,66,29.74,10.0,West,5.8,-,N/A,,Clear,280,2014-01-21 07:15:00
2:35 AM,34.3,23.7,65,29.73,10.0,WNW,5.8,-,N/A,,Clear,290,2014-01-21 07:35:00
2:55 AM,34.5,23.5,64,29.73,10.0,West,5.8,-,N/A,,Clear,280,2014-01-21 07:55:00
3:15 AM,33.3,23.9,69,29.72,10.0,West,6.9,-,N/A,,Clear,280,2014-01-21 08:15:00
3:35 AM,33.4,23.9,68,29.72,10.0,West,6.9,-,N/A,,Clear,260,2014-01-21 08:35:00
3:55 AM,33.3,23.9,69,29.71,10.0,West,5.8,-,N/A,,Clear,260,2014-01-21 08:55:00
4:15 AM,33.3,23.9,69,29.71,10.0,West,4.6,-,N/A,,Clear,270,2014-01-21 09:15:00
4:35 AM,33.1,23.9,69,29.70,10.0,West,3.5,-,N/A,,Clear,270,2014-01-21 09:35:00
4:55 AM,32.5,24.3,72,29.69,10.0,SW,4.6,-,N/A,,Clear,230,2014-01-21 09:55:00
5:15 AM,31.8,24.4,74,29.68,10.0,Calm,Calm,-,N/A,,Clear,0,2014-01-21 10:15:00
5:35 AM,32.9,24.3,71,29.67,10.0,West,3.5,-,N/A,,Clear,280,2014-01-21 10:35:00
5:55 AM,32.5,24.4,72,29.67,10.0,Calm,Calm,-,N/A,,Clear,0,2014-01-21 10:55:00
6:15 AM,32.5,25.0,74,29.66,10.0,Calm,Calm,-,N/A,,Scattered Clouds,0,2014-01-21 11:15:00
6:35 AM,31.6,25.7,79,29.66,10.0,Calm,Calm,-,N/A,,Mostly Cloudy,0,2014-01-21 11:35:00
6:55 AM,32.0,25.7,78,29.65,10.0,Calm,Calm,-,N/A,,Scattered Clouds,0,2014-01-21 11:55:00
7:15 AM,32.7,26.2,77,29.64,10.0,Calm,Calm,-,N/A,,Scattered Clouds,0,2014-01-21 12:15:00
7:35 AM,32.7,25.7,75,29.64,10.0,Calm,Calm,-,N/A,,Scattered Clouds,0,2014-01-21 12:35:00
7:55 AM,32.9,26.4,77,29.64,10.0,Calm,Calm,-,N/A,,Clear,0,2014-01-21 12:55:00
8:15 AM,33.3,27.0,78,29.63,10.0,Calm,Calm,-,N/A,,Clear,0,2014-01-21 13:15:00
8:35 AM,33.8,26.6,75,29.62,10.0,Calm,Calm,-,N/A,,Clear,0,2014-01-21 13:35:00
8:55 AM,33.4,27.1,78,29.63,10.0,Calm,Calm,-,N/A,,Scattered Clouds,0,2014-01-21 13:55:00
9:15 AM,34.2,27.3,76,29.62,10.0,NW,5.8,-,N/A,,Scattered Clouds,320,2014-01-21 14:15:00
9:35 AM,39.2,25.9,59,29.61,10.0,WNW,9.2,-,N/A,,Clear,300,2014-01-21 14:35:00
9:55 AM,39.6,25.3,57,29.61,10.0,WNW,9.2,-,N/A,,Clear,300,2014-01-21 14:55:00
10:15 AM,39.6,25.5,57,29.62,10.0,WNW,9.2,16.1,N/A,,Clear,290,2014-01-21 15:15:00
10:35 AM,39.2,25.7,58,29.61,10.0,WNW,15.0,18.4,N/A,,Clear,300,2014-01-21 15:35:00
10:55 AM,38.5,26.1,61,29.61,10.0,WNW,15.0,20.7,N/A,,Clear,300,2014-01-21 15:55:00
11:15 AM,35.2,29.8,81,29.62,1.5,NW,12.7,21.9,N/A,Snow,Light Snow,310,2014-01-21 16:15:00
11:35 AM,34.9,30.7,85,29.61,7.0,West,4.6,-,N/A,Snow,Light Snow,280,2014-01-21 16:35:00
11:55 AM,37.8,30.0,74,29.59,10.0,NW,11.5,16.1,N/A,,Scattered Clouds,310,2014-01-21 16:55:00
12:15 PM,35.2,28.6,77,29.58,3.0,WNW,13.8,18.4,N/A,Snow,Light Snow,300,2014-01-21 17:15:00
12:35 PM,36.0,29.7,78,29.57,0.8,WNW,19.6,24.2,N/A,Snow,Light Snow,290,2014-01-21 17:35:00
12:55 PM,32.5,31.6,96,29.57,1.2,WNW,15.0,25.3,N/A,Snow,Light Snow,290,2014-01-21 17:55:00
1:15 PM,33.8,29.7,85,29.57,4.0,WNW,18.4,25.3,N/A,Snow,Light Snow,300,2014-01-21 18:15:00
1:35 PM,34.2,28.6,80,29.55,10.0,NW,13.8,23.0,N/A,,Clear,310,2014-01-21 18:35:00
1:55 PM,31.6,27.9,86,29.57,0.8,WNW,21.9,34.5,N/A,Snow,Light Snow,300,2014-01-21 18:55:00
2:15 PM,30.6,26.8,86,29.57,0.5,WNW,23.0,35.7,N/A,Snow,Light Snow,290,2014-01-21 19:15:00
2:35 PM,30.2,26.1,85,29.57,2.0,WNW,25.3,33.4,N/A,Snow,Light Snow,300,2014-01-21 19:35:00
2:55 PM,29.8,25.7,85,29.57,1.5,WNW,20.7,29.9,N/A,Snow,Light Snow,290,2014-01-21 19:55:00
3:15 PM,29.7,25.3,84,29.57,1.8,WNW,25.3,33.4,N/A,Snow,Light Snow,290,2014-01-21 20:15:00
3:35 PM,29.1,25.7,87,29.57,1.0,WNW,19.6,31.1,N/A,Snow,Light Snow,290,2014-01-21 20:35:00
3:55 PM,28.4,25.9,90,29.60,0.8,NW,12.7,24.2,N/A,Snow,Light Snow,310,2014-01-21 20:55:00
4:15 PM,28.0,24.3,86,29.61,1.2,NW,11.5,20.7,N/A,Snow,Light Snow,310,2014-01-21 21:15:00
4:35 PM,27.1,23.4,86,29.62,0.8,NW,19.6,27.6,N/A,Snow,Light Snow,310,2014-01-21 21:35:00
4:55 PM,25.7,21.6,84,29.63,1.0,WNW,23.0,31.1,N/A,Snow,Light Snow,300,2014-01-21 21:55:00
5:15 PM,24.6,20.3,84,29.64,1.0,WNW,25.3,34.5,N/A,Snow,Light Snow,300,2014-01-21 22:15:00
5:35 PM,23.5,20.1,87,29.65,0.8,WNW,23.0,31.1,N/A,Snow,Light Snow,290,2014-01-21 22:35:00
5:55 PM,23.4,19.2,84,29.64,1.0,WNW,26.5,35.7,N/A,Snow,Light Snow,300,2014-01-21 22:55:00
6:15 PM,23.0,18.7,84,29.65,2.0,WNW,25.3,38.0,N/A,Snow,Light Snow,300,2014-01-21 23:15:00
6:35 PM,23.2,18.7,83,29.66,3.0,NW,24.2,35.7,N/A,Snow,Light Snow,310,2014-01-21 23:35:00
6:55 PM,22.3,17.6,82,29.67,1.8,WNW,28.8,43.7,N/A,Snow,Light Snow,300,2014-01-21 23:55:00
7:15 PM,21.4,16.7,82,29.69,3.0,NW,26.5,35.7,N/A,Snow,Light Snow,310,2014-01-22 00:15:00
7:35 PM,20.5,15.6,81,29.70,3.0,NW,20.7,33.4,N/A,Snow,Light Snow,310,2014-01-22 00:35:00
7:55 PM,19.4,14.5,81,29.71,5.0,WNW,16.1,32.2,N/A,Snow,Light Snow,300,2014-01-22 00:55:00
8:15 PM,18.7,13.1,79,29.71,10.0,NW,16.1,26.5,N/A,Snow,Light Snow,310,2014-01-22 01:15:00
8:35 PM,18.5,12.7,78,29.72,7.0,WNW,17.3,25.3,N/A,Snow,Light Snow,300,2014-01-22 01:35:00
8:55 PM,18.3,12.6,78,29.73,4.0,WNW,17.3,24.2,N/A,Snow,Light Snow,300,2014-01-22 01:55:00
9:15 PM,17.8,12.2,79,29.72,3.0,WNW,21.9,31.1,N/A,Snow,Light Snow,290,2014-01-22 02:15:00
9:35 PM,17.6,12.2,79,29.72,2.5,NW,18.4,39.1,N/A,Snow,Light Snow,320,2014-01-22 02:35:00
9:55 PM,16.7,12.0,82,29.72,1.8,WNW,18.4,38.0,N/A,Snow,Light Snow,300,2014-01-22 02:55:00
10:15 PM,15.8,10.4,79,29.72,2.0,WNW,27.6,41.4,N/A,Snow,Light Snow,300,2014-01-22 03:15:00
10:35 PM,15.3,10.0,80,29.72,1.5,NW,26.5,40.3,N/A,Snow,Light Snow,310,2014-01-22 03:35:00
10:55 PM,15.3,9.5,78,29.74,2.5,WNW,11.5,25.3,N/A,Snow,Light Snow,290,2014-01-22 03:55:00
11:15 PM,15.1,9.3,78,29.73,3.0,NW,25.3,33.4,N/A,Snow,Light Snow,310,2014-01-22 04:15:00
11:35 PM,14.4,8.4,77,29.73,4.0,WNW,23.0,33.4,N/A,Snow,Light Snow,300,2014-01-22 04:35:00
11:55 PM,14.0,8.1,77,29.73,5.0,NW,23.0,28.8,N/A,Snow,Light Snow,310,2014-01-22 04:55:00